createdAt,value
2019-03-08T00:02:24.601Z,6.90
2019-03-08T00:04:56.085Z,2.93
2019-03-08T00:07:27.259Z,4.77
2019-03-08T00:09:58.827Z,5.07
2019-03-08T00:12:30.055Z,2.77
2019-03-08T00:15:01.318Z,3.87
2019-03-08T00:17:32.596Z,3.33
2019-03-08T00:20:05.343Z,4.63
2019-03-08T00:22:36.573Z,3.27
2019-03-08T00:25:08.291Z,2.47
2019-03-08T00:27:39.625Z,3.43
2019-03-08T00:30:11.751Z,3.33
2019-03-08T00:32:43.334Z,6.70
2019-03-08T00:35:14.978Z,5.20
2019-03-08T00:37:46.133Z,3.30
2019-03-08T00:40:17.412Z,4.43
2019-03-08T00:42:48.582Z,2.77
2019-03-08T00:45:20.676Z,3.43
2019-03-08T00:47:52.192Z,7.10
2019-03-08T00:50:23.671Z,5.30
2019-03-08T00:52:55.026Z,4.50
2019-03-08T00:55:26.486Z,4.60
2019-03-08T00:57:57.914Z,5.97
2019-03-08T01:00:30.966Z,5.20
2019-03-08T01:03:02.199Z,3.77
2019-03-08T01:05:33.356Z,3.20
2019-03-08T01:08:04.678Z,5.43
2019-03-08T01:10:35.921Z,2.37
2019-03-08T01:13:07.371Z,3.17
2019-03-08T01:15:38.708Z,4.20
2019-03-08T01:18:10.300Z,8.00
2019-03-08T01:20:41.618Z,3.77
2019-03-08T01:23:13.129Z,2.60
2019-03-08T01:25:44.461Z,5.73
2019-03-08T01:28:16.463Z,3.90
2019-03-08T01:30:47.871Z,5.70
2019-03-08T01:33:20.784Z,5.50
2019-03-08T01:35:52.406Z,6.13
2019-03-08T01:38:24.011Z,2.83
2019-03-08T01:40:55.301Z,4.80
2019-03-08T01:43:26.558Z,3.27
2019-03-08T01:45:57.964Z,5.70
2019-03-08T01:48:29.630Z,5.33
2019-03-08T01:51:00.983Z,4.07
2019-03-08T01:53:33.101Z,4.43
2019-03-08T01:56:04.474Z,4.80
2019-03-08T01:58:35.766Z,3.03
2019-03-08T02:01:07.424Z,6.90
2019-03-08T02:03:38.733Z,3.47
2019-03-08T02:06:10.308Z,4.23
2019-03-08T02:08:42.275Z,4.40
2019-03-08T02:11:13.819Z,4.27
2019-03-08T02:13:45.158Z,3.40
2019-03-08T02:16:17.027Z,3.67
2019-03-08T02:18:48.357Z,3.80
2019-03-08T02:21:19.910Z,4.73
2019-03-08T02:23:51.378Z,2.93
2019-03-08T02:26:22.669Z,3.43
2019-03-08T02:28:54.313Z,5.27
2019-03-08T02:31:26.462Z,4.13
2019-03-08T02:33:58.134Z,3.60
2019-03-08T02:36:29.288Z,5.97
2019-03-08T02:39:00.451Z,4.77
2019-03-08T02:41:31.718Z,4.17
2019-03-08T02:44:03.051Z,4.97
2019-03-08T02:46:34.364Z,3.97
2019-03-08T02:49:06.412Z,4.77
2019-03-08T02:51:38.495Z,4.10
2019-03-08T02:54:10.079Z,5.17
2019-03-08T02:56:41.340Z,4.00
2019-03-08T02:59:12.624Z,3.47
2019-03-08T03:01:44.188Z,4.37
2019-03-08T03:04:15.438Z,3.47
2019-03-08T03:06:46.713Z,2.97
2019-03-08T03:09:18.591Z,4.63
2019-03-08T03:11:49.858Z,4.13
2019-03-08T03:14:21.177Z,4.23
2019-03-08T03:16:52.455Z,4.50
2019-03-08T03:19:23.649Z,2.23
2019-03-08T03:21:54.781Z,3.97
2019-03-08T03:24:25.982Z,6.30
2019-03-08T03:26:57.164Z,2.80
2019-03-08T03:29:28.565Z,3.17
2019-03-08T03:31:59.964Z,4.63
2019-03-08T03:34:31.400Z,4.57
2019-03-08T03:37:02.652Z,3.03
2019-03-08T03:39:33.877Z,5.53
2019-03-08T03:42:05.190Z,2.60
2019-03-08T03:44:36.411Z,4.10
2019-03-08T03:47:08.162Z,5.00
2019-03-08T03:49:39.333Z,6.03
2019-03-08T03:52:11.012Z,4.50
2019-03-08T03:54:42.345Z,5.20
2019-03-08T03:57:13.695Z,5.07
2019-03-08T03:59:44.843Z,3.97
2019-03-08T04:02:17.393Z,3.53
2019-03-08T04:04:48.653Z,5.40
2019-03-08T04:07:19.996Z,5.17
2019-03-08T04:09:51.514Z,4.10
2019-03-08T04:12:22.999Z,3.23
2019-03-08T04:14:54.248Z,3.63
2019-03-08T04:17:25.910Z,4.10
2019-03-08T04:19:57.097Z,5.50
2019-03-08T04:22:28.299Z,2.23
2019-03-08T04:24:59.925Z,2.70
2019-03-08T04:27:31.106Z,6.20
2019-03-08T04:30:02.282Z,3.73
2019-03-08T04:32:33.458Z,2.53
2019-03-08T04:35:04.893Z,3.77
2019-03-08T04:37:36.149Z,2.70
2019-03-08T04:40:08.413Z,2.37
2019-03-08T04:42:40.637Z,3.30
2019-03-08T04:45:12.811Z,3.20
2019-03-08T04:47:44.418Z,2.90
2019-03-08T04:50:15.798Z,3.00
2019-03-08T04:52:46.887Z,6.33
2019-03-08T04:55:18.447Z,1.80
2019-03-08T04:57:50.418Z,3.33
2019-03-08T05:00:21.825Z,1.53
2019-03-08T05:02:53.375Z,3.23
2019-03-08T05:05:24.965Z,1.80
2019-03-08T05:07:56.464Z,1.50
2019-03-08T05:10:28.091Z,1.27
2019-03-08T05:12:59.290Z,2.30
2019-03-08T05:15:30.458Z,2.27
2019-03-08T05:18:02.086Z,2.23
2019-03-08T05:20:33.409Z,2.60
2019-03-08T05:23:04.736Z,2.07
2019-03-08T05:25:35.966Z,3.27
2019-03-08T05:28:07.426Z,2.60
2019-03-08T05:30:39.037Z,1.87
2019-03-08T05:33:10.362Z,4.50
2019-03-08T05:35:41.568Z,1.50
2019-03-08T05:38:13.081Z,1.93
2019-03-08T05:40:44.184Z,2.33
2019-03-08T05:43:15.620Z,3.33
2019-03-08T05:45:46.802Z,2.13
2019-03-08T05:48:18.010Z,2.20
2019-03-08T05:50:49.989Z,3.87
2019-03-08T05:53:21.355Z,2.57
2019-03-08T05:55:52.535Z,2.03
2019-03-08T05:58:23.919Z,2.13
2019-03-08T06:00:55.510Z,3.13
2019-03-08T06:03:26.713Z,3.00
2019-03-08T06:05:58.048Z,4.53
2019-03-08T06:08:29.644Z,6.07
2019-03-08T06:11:01.095Z,3.13
2019-03-08T06:13:32.428Z,3.30
2019-03-08T06:16:03.694Z,4.47
2019-03-08T06:18:34.958Z,3.97
2019-03-08T06:21:06.331Z,6.53
2019-03-08T06:23:37.556Z,3.70
2019-03-08T06:26:08.803Z,4.67
2019-03-08T06:28:40.343Z,4.03
2019-03-08T06:31:11.595Z,6.10
2019-03-08T06:33:42.811Z,4.50
2019-03-08T06:36:13.966Z,6.23
2019-03-08T06:38:45.171Z,5.93
2019-03-08T06:41:16.652Z,4.17
2019-03-08T06:43:48.758Z,2.77
2019-03-08T06:46:19.991Z,3.00
2019-03-08T06:48:51.832Z,3.53
2019-03-08T06:51:23.002Z,3.27
2019-03-08T06:53:54.299Z,2.97
2019-03-08T06:56:26.110Z,3.40
2019-03-08T06:59:03.874Z,1.37
2019-03-08T07:01:37.816Z,2.37
2019-03-08T07:04:09.080Z,6.53
2019-03-08T07:06:40.445Z,0.93
2019-03-08T07:09:12.073Z,3.00
2019-03-08T07:11:43.715Z,1.53
2019-03-08T07:14:15.303Z,1.10
2019-03-08T07:16:46.504Z,2.57
2019-03-08T07:19:17.921Z,0.73
2019-03-08T07:21:54.978Z,1.80
2019-03-08T07:24:48.319Z,2.20
2019-03-08T07:27:37.808Z,2.97
2019-03-08T07:30:29.144Z,2.17
2019-03-08T07:33:18.256Z,2.90
2019-03-08T07:36:06.895Z,3.20
2019-03-08T07:39:05.991Z,2.93
2019-03-08T07:41:56.374Z,4.97
2019-03-08T07:44:45.879Z,3.83
2019-03-08T07:47:35.867Z,5.30
2019-03-08T07:50:26.621Z,5.40
2019-03-08T07:53:05.122Z,6.27
2019-03-08T07:56:07.605Z,7.37
2019-03-08T07:58:49.203Z,7.07
2019-03-08T08:01:29.006Z,5.67
2019-03-08T08:04:22.956Z,6.13
2019-03-08T08:07:12.080Z,6.50
2019-03-08T08:09:51.312Z,6.20
2019-03-08T08:12:36.095Z,5.90
2019-03-08T08:15:17.639Z,6.33
2019-03-08T08:18:06.999Z,6.17
2019-03-08T08:20:55.800Z,6.40
2019-03-08T08:23:40.741Z,10.33
2019-03-08T08:26:40.079Z,9.53
2019-03-08T08:29:35.078Z,10.63
2019-03-08T08:32:24.216Z,8.53
2019-03-08T08:35:09.084Z,6.93
2019-03-08T08:38:05.430Z,6.93
2019-03-08T08:40:57.105Z,8.10
2019-03-08T08:43:53.418Z,9.90
2019-03-08T08:46:42.817Z,9.13
2019-03-08T08:49:37.513Z,10.07
2019-03-08T08:52:25.548Z,10.97
2019-03-08T08:55:14.581Z,13.47
2019-03-08T08:58:04.677Z,11.47
2019-03-08T09:01:03.823Z,11.27
2019-03-08T09:03:50.181Z,11.17
2019-03-08T09:06:40.270Z,11.50
2019-03-08T09:09:19.499Z,10.23
2019-03-08T09:12:03.540Z,12.77
2019-03-08T09:14:40.981Z,9.90
2019-03-08T09:17:29.268Z,13.57
2019-03-08T09:20:34.734Z,12.60
2019-03-08T09:23:11.498Z,9.40
2019-03-08T09:26:16.901Z,9.87
2019-03-08T09:29:06.140Z,12.10
2019-03-08T16:24:00.635Z,3.27
2019-03-08T16:26:31.935Z,4.20
2019-03-08T16:29:03.234Z,3.20
2019-03-08T16:31:55.937Z,2.37
2019-03-08T16:34:26.661Z,2.30
2019-03-08T16:37:02.285Z,2.13
2019-03-08T16:40:04.287Z,3.47
2019-03-08T16:42:59.828Z,3.90
2019-03-08T16:45:56.208Z,4.77
2019-03-08T16:48:34.951Z,2.73
2019-03-08T16:51:30.254Z,3.23
2019-03-08T16:54:27.835Z,3.97
2019-03-08T16:57:11.017Z,2.57
2019-03-08T16:59:48.968Z,2.40
2019-03-08T17:02:37.747Z,2.07
2019-03-08T17:05:26.736Z,2.97
2019-03-08T17:08:17.712Z,2.17
2019-03-08T17:11:23.119Z,2.43
2019-03-08T17:14:10.254Z,3.53
2019-03-08T17:16:49.586Z,3.20
2019-03-08T17:19:27.647Z,2.80
2019-03-08T17:22:21.018Z,3.57
2019-03-08T17:25:13.117Z,4.53
2019-03-08T17:28:02.155Z,2.93
2019-03-08T17:31:04.622Z,2.20
2019-03-08T17:34:00.689Z,4.97
2019-03-08T17:36:53.812Z,3.17
2019-03-08T17:40:02.225Z,4.83
2019-03-08T17:42:46.658Z,4.00
2019-03-08T17:45:45.784Z,4.43
2019-03-08T17:48:39.218Z,5.77
2019-03-08T17:51:30.209Z,5.03
2019-03-08T17:54:35.634Z,3.60
2019-03-08T17:57:41.035Z,4.77
2019-03-08T18:00:32.880Z,7.03
2019-03-08T18:03:32.005Z,5.47
2019-03-08T18:06:15.766Z,4.07
2019-03-08T18:08:55.152Z,4.00
2019-03-08T18:11:43.916Z,3.87
2019-03-08T18:14:26.372Z,7.20
2019-03-08T18:17:15.523Z,5.87
2019-03-08T18:20:08.190Z,6.73
2019-03-08T18:23:01.832Z,5.27
2019-03-08T18:25:43.855Z,6.67
2019-03-08T18:28:35.086Z,4.47
2019-03-08T18:31:16.067Z,14.57
2019-03-08T18:34:18.293Z,4.20
2019-03-08T18:36:59.500Z,5.30
2019-03-08T18:39:55.659Z,5.47
2019-03-08T18:42:46.065Z,4.63
2019-03-08T18:45:43.303Z,6.47
2019-03-08T18:48:20.456Z,5.63
2019-03-08T18:51:23.086Z,6.23
2019-03-08T18:54:18.666Z,5.00
2019-03-08T18:57:11.896Z,5.60
2019-03-08T18:59:58.638Z,5.90
2019-03-08T19:02:49.017Z,5.93
2019-03-08T19:05:36.767Z,9.97
2019-03-08T19:08:26.314Z,5.57
2019-03-08T19:11:15.924Z,6.10
2019-03-08T19:14:18.293Z,5.97
2019-03-08T19:17:08.444Z,7.87
2019-03-08T19:19:48.896Z,9.47
2019-03-08T19:22:48.753Z,11.13
2019-03-08T19:25:29.025Z,8.43
2019-03-08T19:28:28.686Z,11.73
2019-03-08T19:31:21.862Z,13.70
2019-03-08T19:34:14.820Z,7.20
2019-03-08T19:36:52.760Z,10.10
2019-03-08T19:39:41.869Z,7.77
2019-03-08T19:42:18.060Z,8.60
2019-03-08T19:44:57.412Z,13.73
2019-03-08T19:47:47.585Z,7.07
2019-03-08T19:50:34.967Z,9.00
2019-03-08T19:53:43.476Z,10.13
2019-03-08T19:56:46.175Z,10.80
2019-03-08T19:59:45.168Z,10.73
2019-03-08T20:02:42.265Z,11.47
2019-03-08T20:05:30.013Z,8.90
2019-03-08T20:08:20.182Z,10.83
2019-03-08T20:11:10.094Z,8.27
2019-03-08T20:13:50.816Z,9.83
2019-03-08T20:16:35.285Z,8.67
2019-03-08T20:19:37.746Z,6.43
2019-03-08T20:22:22.534Z,8.70
2019-03-08T20:25:13.165Z,8.33
2019-03-08T20:27:50.600Z,9.00
2019-03-08T20:30:43.942Z,10.70
2019-03-08T20:33:40.843Z,10.33
2019-03-08T20:36:34.812Z,6.73
2019-03-08T20:39:30.352Z,10.33
2019-03-08T20:42:23.469Z,8.87
2019-03-08T20:45:19.861Z,7.20
2019-03-08T20:47:51.644Z,8.10
2019-03-08T20:50:23.168Z,7.83
2019-03-08T20:52:54.399Z,12.17
2019-03-08T20:55:25.647Z,7.93
2019-03-08T20:57:56.953Z,10.13
2019-03-08T21:00:28.276Z,9.03
2019-03-08T21:03:00.865Z,8.13
2019-03-08T21:05:32.731Z,8.00
2019-03-08T21:08:04.181Z,11.13
2019-03-08T21:10:35.517Z,10.63
2019-03-08T21:13:06.742Z,8.37
2019-03-08T21:15:37.974Z,6.17
2019-03-08T21:18:09.478Z,8.97
2019-03-08T21:20:40.940Z,5.63
2019-03-08T21:23:12.185Z,6.57
2019-03-08T21:25:43.406Z,8.63
2019-03-08T21:28:14.821Z,5.90
2019-03-08T21:30:46.095Z,11.80
2019-03-08T21:33:17.425Z,9.70
2019-03-08T21:35:48.680Z,6.50
2019-03-08T21:38:20.260Z,6.80
2019-03-08T21:40:51.502Z,8.03
2019-03-08T21:43:22.892Z,7.73
2019-03-08T21:45:54.095Z,7.03
2019-03-08T21:48:25.442Z,13.20
2019-03-08T21:50:56.671Z,5.87
2019-03-08T21:53:27.759Z,9.20
2019-03-08T21:55:59.187Z,8.93
2019-03-08T21:58:30.390Z,7.23
2019-03-08T22:01:02.116Z,11.10
2019-03-08T22:03:33.432Z,10.43
2019-03-08T22:06:04.650Z,7.07
2019-03-08T22:08:37.417Z,6.90
2019-03-08T22:11:16.558Z,6.53
2019-03-08T22:13:47.709Z,6.13
2019-03-08T22:16:19.157Z,8.43
2019-03-08T22:18:50.229Z,6.80
2019-03-08T22:21:21.595Z,6.67
2019-03-08T22:23:52.654Z,8.10
2019-03-08T22:26:23.902Z,5.70
2019-03-08T22:28:55.131Z,5.50
2019-03-08T22:31:26.687Z,7.80
2019-03-08T22:33:57.848Z,7.37
2019-03-08T22:36:29.185Z,6.83
2019-03-08T22:39:00.369Z,5.57
2019-03-08T22:41:31.566Z,5.77
2019-03-08T22:44:02.704Z,9.13
2019-03-08T22:46:34.375Z,6.63
2019-03-08T22:49:05.870Z,4.40
2019-03-08T22:51:37.282Z,4.03
2019-03-08T22:54:08.410Z,4.37
2019-03-08T22:56:39.729Z,5.07
2019-03-08T22:59:11.171Z,6.30
2019-03-08T23:01:53.476Z,5.87
2019-03-08T23:04:24.798Z,6.57
2019-03-08T23:06:56.099Z,8.37
2019-03-08T23:09:27.368Z,5.03
2019-03-08T23:11:58.818Z,3.37
2019-03-08T23:14:30.210Z,5.60
2019-03-08T23:17:01.567Z,5.30
2019-03-08T23:19:32.774Z,7.93
2019-03-08T23:22:04.248Z,5.87
2019-03-08T23:24:35.419Z,5.80
2019-03-08T23:27:15.975Z,4.13
2019-03-08T23:29:56.231Z,4.87
2019-03-08T23:32:30.437Z,6.40
2019-03-08T23:35:01.570Z,4.97
2019-03-08T23:37:32.842Z,7.93
2019-03-08T23:40:04.786Z,9.33
2019-03-08T23:42:35.999Z,5.97
2019-03-08T23:45:08.009Z,7.13
2019-03-08T23:47:39.248Z,5.87
2019-03-08T23:50:11.210Z,6.53
2019-03-08T23:52:42.629Z,4.47
2019-03-08T23:55:13.872Z,7.00
2019-03-08T23:57:45.125Z,6.83
